Aérodrome :
LOGIN :

S'inscrire | Disclaimer

   EN    FR    IT 

 










Légende :    VFR   VFR Marginal   IFR   IFR Intensif   IFR Très Intensif
Visi : 
Plafond : 
>= 8 km
>= 3000ft
5 à 8 km
1000 à 3000 ft
1500m à 5 km
500 à 1000 ft
800 à 1500m
200 à 500 ft
< 800m
< 200 ft
Symboles :   Orages  Brouillard  Fortes neiges  Fortes précipitations  Vent > 20 kt
SIGMETs :   Divers  Orages  Givrage  Turbulence  Onde Orograph.  Cendres Volcan.






- Altitude de l'aérodrome : 90 ft
- Code IATA : NTE


LFRS - Nantes

DERNIER METAR :
  • 210300Z AUTO 00000KT 0600 0500 R03/1200U R21/0800N FG FEW003 06/06 Q1015 TEMPO VV///

METARs EXPIRÉS :
  • 210230Z AUTO VRB01KT 3300 R21/1000D BR FEW004 07/06 Q1014 TEMPO 0500 FG VV///
  • 210200Z AUTO 32002KT 1800 0600 R03/0700D R21/1400N BCFG FEW003 07/07 Q1014 TEMPO 0500 FG VV///
  • 210130Z AUTO 28002KT 2900 0800 R03/1700U R21/P2000 BCFG NSC 07/07 Q1014 TEMPO 0500 FG VV///
  • 210100Z AUTO 30002KT 2200 BR FEW004 08/07 Q1013 BECMG 3000 BR
  • 210030Z AUTO VRB03KT 3500 1300 R03/1900U R21/P2000 BR NSC 08/08 Q1013 NOSIG

TAF AMD TAF LFRS
Valide du 21 à 01h jusqu'au 22 à 06h UTC


210120Z 2101/2206 VRB03KT 3000 BR NSC
TEMPO 2101/2109 0500 FG VV///
BECMG 2109/2111 9999 NSW
BECMG 2201/2203 3000 BR
TEMPO 2203/2206 0500 FG VV///
ATIS : +33 2 40 05 12 74



MET'MAP, la Météo Aéronautique d'un coup d'oeil ! - Copyright ORBIFLY Décembre 2007 - Disclaimer

ORBIFLY MET'MAP TEAM :

Programmation & Développement : Alexandra Zaïnal
Conception & Développement : Baudouin d'Aumeries
Co-Programmation & Développement : Marc-Olivier Méhu
Soutien technique & logistique : Manuel Goepfert

Contact : metmap@orbifly.com




SOURCES & CREDITS :

   NOAA